createdAt,value
2022-09-28T00:01:20.856Z,16.90
2022-09-28T00:03:51.697Z,16.91
2022-09-28T00:06:22.191Z,16.88
2022-09-28T00:08:51.931Z,16.85
2022-09-28T00:11:21.227Z,16.85
2022-09-28T00:13:53.668Z,16.82
2022-09-28T00:16:28.770Z,16.81
2022-09-28T00:18:55.907Z,16.77
2022-09-28T00:21:27.198Z,16.76
2022-09-28T00:24:12.973Z,16.75
2022-09-28T00:26:51.871Z,16.74
2022-09-28T00:29:21.694Z,16.74
2022-09-28T00:31:52.512Z,16.75
2022-09-28T00:34:20.844Z,16.75
2022-09-28T00:36:49.459Z,16.78
2022-09-28T00:39:17.793Z,16.80
2022-09-28T00:41:46.795Z,16.80
2022-09-28T00:44:25.829Z,16.81
2022-09-28T00:47:08.162Z,16.80
2022-09-28T00:49:45.777Z,16.79
2022-09-28T00:52:20.286Z,16.78
2022-09-28T00:54:49.277Z,16.65
2022-09-28T00:57:17.103Z,16.64
2022-09-28T00:59:44.612Z,16.62
2022-09-28T01:02:11.806Z,16.58
2022-09-28T01:04:39.325Z,16.54
2022-09-28T01:07:09.324Z,16.50
2022-09-28T01:09:40.744Z,16.48
2022-09-28T01:12:08.191Z,16.42
2022-09-28T01:14:35.445Z,16.42
2022-09-28T01:17:16.805Z,16.40
2022-09-28T01:20:34.177Z,16.39
2022-09-28T01:23:13.073Z,16.39
2022-09-28T01:25:54.187Z,16.37
2022-09-28T01:28:26.582Z,16.34
2022-09-28T01:31:11.105Z,16.32
2022-09-28T01:33:45.489Z,16.33
2022-09-28T01:36:19.597Z,16.32
2022-09-28T01:38:53.548Z,16.27
2022-09-28T01:41:24.200Z,16.29
2022-09-28T01:43:57.802Z,16.23
2022-09-28T01:46:37.299Z,16.24
2022-09-28T01:49:34.263Z,16.25
2022-09-28T01:52:18.560Z,16.24
2022-09-28T01:55:06.523Z,16.27
2022-09-28T01:57:44.806Z,16.31
2022-09-28T02:00:15.756Z,16.27
2022-09-28T02:03:16.765Z,16.26
2022-09-28T02:06:04.204Z,16.23
2022-09-28T02:08:55.019Z,16.22
2022-09-28T02:11:31.061Z,16.23
2022-09-28T02:14:06.097Z,16.21
2022-09-28T02:16:43.017Z,16.18
2022-09-28T02:19:15.991Z,16.18
2022-09-28T02:22:29.237Z,16.18
2022-09-28T02:25:05.706Z,16.15
2022-09-28T02:27:55.687Z,16.16
2022-09-28T02:30:22.921Z,16.08
2022-09-28T02:32:55.196Z,16.05
2022-09-28T02:35:22.771Z,16.05
2022-09-28T02:37:50.692Z,16.04
2022-09-28T02:40:32.804Z,16.01
2022-09-28T02:43:29.535Z,16.01
2022-09-28T02:46:18.283Z,15.98
2022-09-28T02:49:21.917Z,15.96
2022-09-28T02:51:59.737Z,15.92
2022-09-28T02:55:11.776Z,15.92
2022-09-28T02:58:29.163Z,15.89
2022-09-28T03:01:22.856Z,15.89
2022-09-28T03:04:26.884Z,15.88
2022-09-28T03:07:13.448Z,15.87
2022-09-28T03:09:52.744Z,15.84
2022-09-28T03:12:23.606Z,15.79
2022-09-28T03:15:33.922Z,15.77
2022-09-28T03:18:01.498Z,15.76
2022-09-28T03:20:32.163Z,15.75
2022-09-28T03:23:23.326Z,15.72
2022-09-28T03:25:47.356Z,15.70
2022-09-28T03:28:14.713Z,15.67
2022-09-28T03:30:43.469Z,15.67
2022-09-28T03:33:11.265Z,15.67
2022-09-28T03:35:39.145Z,15.67
2022-09-28T03:38:06.282Z,15.68
2022-09-28T03:40:36.916Z,15.70
2022-09-28T03:43:03.969Z,15.64
2022-09-28T03:45:31.015Z,15.68
2022-09-28T03:47:58.562Z,15.65
2022-09-28T03:50:25.894Z,15.67
2022-09-28T03:52:52.858Z,15.64
2022-09-28T03:55:19.846Z,15.62
2022-09-28T03:57:54.984Z,15.60
2022-09-28T04:00:21.939Z,15.57
2022-09-28T04:02:49.466Z,15.57
2022-09-28T04:05:16.640Z,15.54
2022-09-28T04:07:43.653Z,15.53
2022-09-28T04:10:10.604Z,15.53
2022-09-28T04:12:40.915Z,15.55
2022-09-28T04:15:08.904Z,15.55
2022-09-28T04:17:39.937Z,15.59
2022-09-28T04:20:12.773Z,15.63
2022-09-28T04:22:45.420Z,15.65
2022-09-28T04:25:12.392Z,15.66
2022-09-28T04:27:57.836Z,15.69
2022-09-28T04:30:24.910Z,15.70
2022-09-28T04:32:53.542Z,15.69
2022-09-28T04:35:21.329Z,15.67
2022-09-28T04:37:48.488Z,15.67
2022-09-28T04:40:15.810Z,15.69
2022-09-28T04:42:43.289Z,15.67
2022-09-28T04:45:10.889Z,15.63
2022-09-28T04:47:42.380Z,15.63
2022-09-28T04:50:38.687Z,15.63
2022-09-28T04:53:21.986Z,15.63
2022-09-28T04:56:04.170Z,15.63
2022-09-28T04:58:33.335Z,15.61
2022-09-28T05:01:05.973Z,15.60
2022-09-28T05:03:51.550Z,15.60
2022-09-28T05:06:41.357Z,15.61
2022-09-28T05:09:09.583Z,15.62
2022-09-28T05:11:36.573Z,15.60
2022-09-28T05:14:07.157Z,15.55
2022-09-28T05:16:34.439Z,15.53
2022-09-28T05:19:19.380Z,15.55
2022-09-28T05:21:47.006Z,15.56
2022-09-28T05:24:14.571Z,15.56
2022-09-28T05:26:44.870Z,15.53
2022-09-28T05:29:12.028Z,15.54
2022-09-28T05:31:57.939Z,15.56
2022-09-28T05:34:49.541Z,15.55
2022-09-28T05:37:24.036Z,15.57
2022-09-28T05:39:51.081Z,15.58
2022-09-28T05:42:18.207Z,15.61
2022-09-28T05:44:45.290Z,15.64
2022-09-28T05:47:13.286Z,15.64
2022-09-28T05:49:40.279Z,15.67
2022-09-28T05:52:07.271Z,15.68
2022-09-28T05:54:37.671Z,15.71
2022-09-28T05:57:07.075Z,15.75
2022-09-28T05:59:35.248Z,15.74
2022-09-28T06:02:04.376Z,15.77
2022-09-28T06:04:31.934Z,15.80
2022-09-28T06:06:59.848Z,15.82
2022-09-28T06:09:27.455Z,15.84
2022-09-28T06:12:13.206Z,15.83
2022-09-28T06:14:44.766Z,15.82
2022-09-28T06:17:12.732Z,15.84
2022-09-28T06:19:41.386Z,15.87
2022-09-28T06:22:26.290Z,15.91
2022-09-28T06:25:04.297Z,15.94
2022-09-28T06:27:31.492Z,15.96
2022-09-28T06:30:00.933Z,15.99
2022-09-28T06:32:30.011Z,16.02
2022-09-28T06:34:57.806Z,16.01
2022-09-28T06:37:27.303Z,16.02
2022-09-28T06:39:56.564Z,16.06
2022-09-28T06:42:24.345Z,16.04
2022-09-28T06:45:25.593Z,16.05
2022-09-28T06:48:11.080Z,16.07
2022-09-28T06:50:41.482Z,16.09
2022-09-28T06:53:29.829Z,16.11
2022-09-28T06:56:01.369Z,16.13
2022-09-28T06:58:29.914Z,16.16
2022-09-28T07:00:59.518Z,16.21
2022-09-28T07:03:28.616Z,16.24
2022-09-28T07:05:57.004Z,16.28
2022-09-28T07:08:41.493Z,16.32
2022-09-28T07:11:27.500Z,16.36
2022-09-28T07:14:24.954Z,16.38
2022-09-28T07:17:12.416Z,16.38
2022-09-28T07:19:41.429Z,16.42
2022-09-28T07:22:08.821Z,16.47
2022-09-28T07:24:36.147Z,16.48
2022-09-28T07:27:39.634Z,16.46
2022-09-28T07:30:20.473Z,16.49
2022-09-28T07:33:32.878Z,16.50
2022-09-28T07:36:21.012Z,16.54
2022-09-28T07:38:48.604Z,16.55
2022-09-28T07:41:21.619Z,16.57
2022-09-28T07:43:51.071Z,16.58
2022-09-28T07:46:21.323Z,16.60
2022-09-28T07:48:55.707Z,16.63
2022-09-28T07:51:52.819Z,16.67
2022-09-28T07:54:39.459Z,16.68
2022-09-28T07:57:07.034Z,16.72
2022-09-28T07:59:57.238Z,16.74
2022-09-28T08:02:45.740Z,16.77
2022-09-28T08:05:17.724Z,16.78
2022-09-28T08:07:44.993Z,16.76
2022-09-28T08:10:12.972Z,16.80
2022-09-28T08:13:04.763Z,16.81
2022-09-28T08:15:55.296Z,16.83
2022-09-28T08:18:32.837Z,16.88
2022-09-28T08:21:21.681Z,16.88
2022-09-28T08:23:49.790Z,16.87
2022-09-28T08:26:17.366Z,16.90
2022-09-28T08:28:47.747Z,16.94
2022-09-28T08:31:33.458Z,16.98
2022-09-28T08:34:21.253Z,17.05
2022-09-28T08:37:11.138Z,17.05
2022-09-28T08:40:01.695Z,17.08
2022-09-28T08:43:00.490Z,17.18
2022-09-28T08:45:36.672Z,17.25
2022-09-28T08:48:56.225Z,17.28
2022-09-28T08:51:59.793Z,17.34
2022-09-28T08:55:02.796Z,17.41
2022-09-28T08:57:58.210Z,17.53
2022-09-28T09:00:54.189Z,17.58
2022-09-28T09:03:35.873Z,17.67
2022-09-28T09:06:52.008Z,17.79
2022-09-28T09:10:19.282Z,17.92
2022-09-28T09:13:12.343Z,18.01
2022-09-28T09:15:56.412Z,18.05
2022-09-28T09:18:47.625Z,18.11
2022-09-28T09:21:42.179Z,18.14
2022-09-28T09:24:27.279Z,18.20
2022-09-28T09:27:41.348Z,18.29
2022-09-28T09:30:18.700Z,18.36
2022-09-28T09:33:25.082Z,18.38
2022-09-28T09:36:18.132Z,18.42
2022-09-28T09:39:24.199Z,18.50
2022-09-28T09:42:35.716Z,18.54
2022-09-28T09:45:48.223Z,18.60
2022-09-28T09:48:47.289Z,18.69
2022-09-28T09:51:26.064Z,18.72
2022-09-28T09:54:02.402Z,18.78
2022-09-28T09:56:57.382Z,18.83
2022-09-28T09:59:45.359Z,18.87
2022-09-28T10:02:35.030Z,18.90
2022-09-28T10:05:23.358Z,18.98
2022-09-28T10:08:10.362Z,19.02
2022-09-28T10:10:50.061Z,19.04
2022-09-28T10:13:19.376Z,19.09
2022-09-28T10:15:48.202Z,19.15
2022-09-28T10:18:23.335Z,19.20
2022-09-28T10:21:15.383Z,19.31
2022-09-28T10:23:59.221Z,19.36
2022-09-28T10:26:39.751Z,19.42
2022-09-28T10:29:23.001Z,19.50
2022-09-28T10:31:52.403Z,19.51
2022-09-28T10:34:35.659Z,19.59
2022-09-28T10:37:13.372Z,19.65
2022-09-28T10:40:06.842Z,19.69
2022-09-28T10:42:36.422Z,19.73
2022-09-28T10:45:23.260Z,19.78
2022-09-28T10:47:53.885Z,19.82
2022-09-28T10:50:26.281Z,19.89
2022-09-28T10:53:21.761Z,19.86
2022-09-28T10:56:23.359Z,19.87
2022-09-28T10:59:28.566Z,19.89
2022-09-28T11:02:48.747Z,19.90
2022-09-28T11:05:29.007Z,19.86
2022-09-28T11:08:02.563Z,19.87
2022-09-28T11:10:38.069Z,19.88
2022-09-28T11:13:12.542Z,19.91
2022-09-28T11:15:44.464Z,19.95
2022-09-28T11:18:34.517Z,20.02
2022-09-28T11:21:21.507Z,20.01
2022-09-28T11:24:19.508Z,20.04
2022-09-28T11:26:52.925Z,20.06
2022-09-28T11:29:35.008Z,20.08
2022-09-28T11:32:30.702Z,20.13
2022-09-28T11:35:50.644Z,20.14
2022-09-28T11:38:36.231Z,20.11
2022-09-28T11:41:34.918Z,20.10
2022-09-28T11:44:29.467Z,20.11
2022-09-28T11:47:25.634Z,20.12
2022-09-28T11:50:23.732Z,20.11
2022-09-28T11:53:10.500Z,20.11
2022-09-28T11:55:54.326Z,20.10
2022-09-28T11:58:45.044Z,20.14
2022-09-28T12:01:36.151Z,20.14
2022-09-28T12:04:39.583Z,20.21
2022-09-28T12:07:18.019Z,20.25
2022-09-28T12:10:13.516Z,20.31
2022-09-28T12:12:52.536Z,20.36
2022-09-28T12:15:24.374Z,20.41
2022-09-28T12:18:07.427Z,20.57
2022-09-28T12:20:42.709Z,20.73
2022-09-28T12:23:25.957Z,20.89
2022-09-28T12:26:04.830Z,20.97
2022-09-28T12:28:40.126Z,21.00
2022-09-28T12:31:26.424Z,21.01
2022-09-28T12:33:53.373Z,21.07
2022-09-28T12:36:56.558Z,21.01
2022-09-28T12:40:02.252Z,21.12
2022-09-28T12:42:53.066Z,21.09
2022-09-28T12:46:11.972Z,21.12
2022-09-28T12:48:52.925Z,21.14
2022-09-28T12:51:57.619Z,21.15
2022-09-28T12:55:15.234Z,21.16
2022-09-28T12:58:00.227Z,21.18
2022-09-28T13:00:55.019Z,21.20
2022-09-28T13:03:31.195Z,21.17
2022-09-28T13:09:14.773Z,21.22
2022-09-28T13:11:54.599Z,21.29
2022-09-28T13:14:51.365Z,21.27
2022-09-28T13:18:04.126Z,21.27
2022-09-28T13:24:04.332Z,21.31
2022-09-28T13:26:44.993Z,21.39
2022-09-28T13:29:16.244Z,21.54
2022-09-28T13:34:38.279Z,21.86
2022-09-28T13:37:23.427Z,22.00
2022-09-28T13:40:05.826Z,22.12
2022-09-28T13:42:45.154Z,22.26
2022-09-28T13:45:21.503Z,22.35
2022-09-28T13:47:51.921Z,22.44
2022-09-28T13:51:11.519Z,22.55
2022-09-28T13:53:56.384Z,22.63
2022-09-28T13:56:49.658Z,22.68
2022-09-28T13:59:29.852Z,22.73
2022-09-28T14:02:30.339Z,22.79
2022-09-28T14:05:02.291Z,22.81
2022-09-28T14:07:35.066Z,22.89
2022-09-28T14:10:22.237Z,22.93
2022-09-28T14:12:54.143Z,22.96
2022-09-28T14:15:30.305Z,23.04
2022-09-28T14:18:54.962Z,23.14
2022-09-28T14:22:19.541Z,23.16
2022-09-28T14:25:15.265Z,23.14
2022-09-28T14:28:01.739Z,23.08
2022-09-28T14:30:45.408Z,23.06
2022-09-28T14:33:33.679Z,23.02
2022-09-28T14:36:05.220Z,23.02
2022-09-28T14:39:02.869Z,22.93
2022-09-28T14:41:43.157Z,22.87
2022-09-28T14:44:13.487Z,22.84
2022-09-28T14:46:47.876Z,22.83
2022-09-28T14:49:17.631Z,22.82
2022-09-28T14:51:47.529Z,22.79
2022-09-28T14:54:23.575Z,22.77
2022-09-28T14:56:53.601Z,22.71
2022-09-28T14:59:30.916Z,22.70
2022-09-28T15:02:01.333Z,22.64
2022-09-28T15:04:31.268Z,22.60
2022-09-28T15:06:58.329Z,22.54
2022-09-28T15:09:36.547Z,22.53
2022-09-28T15:12:15.143Z,22.45
2022-09-28T15:14:48.138Z,22.42
2022-09-28T15:17:23.553Z,22.40
2022-09-28T15:20:02.701Z,22.41
2022-09-28T15:22:30.271Z,22.37
2022-09-28T15:25:02.449Z,22.38
2022-09-28T15:27:37.498Z,22.35
2022-09-28T15:30:25.471Z,22.32
2022-09-28T15:33:16.977Z,22.29
2022-09-28T15:35:56.764Z,22.25
2022-09-28T15:38:24.166Z,22.20
2022-09-28T15:40:51.522Z,22.17
2022-09-28T15:43:27.004Z,22.15
2022-09-28T15:46:08.079Z,22.11
2022-09-28T15:48:46.669Z,22.06
2022-09-28T15:51:13.803Z,22.02
2022-09-28T15:53:59.076Z,22.01
2022-09-28T15:56:27.664Z,21.99
2022-09-28T15:59:33.153Z,21.95
2022-09-28T16:02:23.002Z,21.93
2022-09-28T16:05:01.963Z,21.91
2022-09-28T16:07:35.326Z,21.91
2022-09-28T16:10:12.956Z,21.90
2022-09-28T16:12:40.546Z,21.87
2022-09-28T16:15:20.160Z,21.86
2022-09-28T16:17:56.241Z,21.87
2022-09-28T16:20:29.995Z,21.87
2022-09-28T16:23:08.620Z,21.86
2022-09-28T16:25:39.076Z,21.85
2022-09-28T16:28:07.650Z,21.85
2022-09-28T16:30:37.047Z,21.82
2022-09-28T16:33:30.250Z,21.82
2022-09-28T16:36:03.431Z,21.83
2022-09-28T16:38:31.673Z,21.82
2022-09-28T16:41:02.286Z,21.83
2022-09-28T16:43:31.601Z,21.77
2022-09-28T16:46:14.686Z,21.77
2022-09-28T16:48:49.089Z,21.74
2022-09-28T16:51:18.790Z,21.73
2022-09-28T16:54:05.004Z,21.68
2022-09-28T16:56:34.564Z,21.63
2022-09-28T16:59:02.758Z,21.59
2022-09-28T17:01:31.214Z,21.58
2022-09-28T17:03:58.558Z,21.54
2022-09-28T17:06:26.584Z,21.49
2022-09-28T17:08:56.670Z,21.44
2022-09-28T17:11:25.088Z,21.37
2022-09-28T17:13:56.868Z,21.36
2022-09-28T17:16:51.011Z,21.32
2022-09-28T17:19:24.929Z,21.26
2022-09-28T17:21:53.788Z,21.21
2022-09-28T17:24:21.389Z,21.17
2022-09-28T17:26:51.983Z,21.13
2022-09-28T17:29:20.050Z,21.10
2022-09-28T17:31:48.018Z,21.02
2022-09-28T17:34:17.676Z,20.98
2022-09-28T17:36:45.614Z,20.93
2022-09-28T17:39:19.127Z,20.87
2022-09-28T17:41:46.642Z,20.79
2022-09-28T17:44:17.541Z,20.77
2022-09-28T17:46:49.083Z,20.76
2022-09-28T17:49:18.572Z,20.73
2022-09-28T17:51:48.499Z,20.71
2022-09-28T17:54:19.311Z,20.69
2022-09-28T17:56:50.435Z,20.65
2022-09-28T17:59:21.249Z,20.62
2022-09-28T18:01:49.292Z,20.60
2022-09-28T18:04:40.154Z,20.54
2022-09-28T18:07:06.744Z,20.52
2022-09-28T18:09:35.087Z,20.49
2022-09-28T18:12:06.386Z,20.46
2022-09-28T18:14:35.822Z,20.42
2022-09-28T18:17:03.557Z,20.37
2022-09-28T18:19:32.283Z,20.33
2022-09-28T18:22:02.875Z,20.23
2022-09-28T18:24:32.450Z,20.15
2022-09-28T18:27:02.982Z,20.08
2022-09-28T18:29:33.307Z,20.01
2022-09-28T18:32:04.354Z,19.96
2022-09-28T18:34:39.962Z,19.92
2022-09-28T18:37:08.510Z,19.88
2022-09-28T18:39:37.225Z,19.86
2022-09-28T18:42:07.137Z,19.82
2022-09-28T18:44:37.174Z,19.79
2022-09-28T18:47:05.371Z,19.79
2022-09-28T18:49:33.605Z,19.76
2022-09-28T18:52:03.489Z,19.76
2022-09-28T18:54:31.584Z,19.77
2022-09-28T18:57:00.707Z,19.75
2022-09-28T18:59:29.261Z,19.74
2022-09-28T19:02:00.816Z,19.72
2022-09-28T19:04:30.533Z,19.73
2022-09-28T19:06:58.097Z,19.68
2022-09-28T19:09:26.535Z,19.70
2022-09-28T19:11:55.196Z,19.69
2022-09-28T19:14:25.854Z,19.67
2022-09-28T19:16:56.039Z,19.68
2022-09-28T19:19:24.235Z,19.66
2022-09-28T19:21:53.122Z,19.66
2022-09-28T19:24:21.770Z,19.66
2022-09-28T19:26:53.486Z,19.66
2022-09-28T19:29:23.475Z,19.66
2022-09-28T19:31:52.393Z,19.65
2022-09-28T19:34:21.875Z,19.65
2022-09-28T19:36:50.738Z,19.66
2022-09-28T19:39:18.430Z,19.62
2022-09-28T19:41:53.020Z,19.59
2022-09-28T19:44:27.378Z,19.57
2022-09-28T19:47:07.492Z,19.57
2022-09-28T19:49:38.639Z,19.54
2022-09-28T19:52:16.491Z,19.52
2022-09-28T19:55:01.594Z,19.45
2022-09-28T19:57:33.487Z,19.41
2022-09-28T20:00:03.850Z,19.37
2022-09-28T20:02:39.090Z,19.35
2022-09-28T20:05:10.118Z,19.34
2022-09-28T20:07:39.846Z,19.33
2022-09-28T20:10:13.776Z,19.27
2022-09-28T20:12:44.111Z,19.23
2022-09-28T20:15:16.279Z,19.15
2022-09-28T20:17:45.913Z,19.11
2022-09-28T20:20:14.539Z,19.07
2022-09-28T20:22:43.943Z,19.05
2022-09-28T20:25:13.280Z,19.06
2022-09-28T20:27:41.556Z,19.05
2022-09-28T20:30:09.654Z,19.04
2022-09-28T20:32:39.693Z,19.07
2022-09-28T20:35:08.501Z,19.08
2022-09-28T20:37:36.178Z,19.05
2022-09-28T20:40:05.620Z,19.00
2022-09-28T20:42:35.183Z,18.98
2022-09-28T20:45:05.670Z,18.97
2022-09-28T20:47:33.292Z,18.94
2022-09-28T20:50:02.853Z,18.92
2022-09-28T20:52:32.310Z,18.92
2022-09-28T20:55:01.089Z,18.91
2022-09-28T20:57:28.842Z,18.92
2022-09-28T20:59:57.774Z,18.94
2022-09-28T21:02:27.547Z,18.94
2022-09-28T21:04:54.654Z,18.94
2022-09-28T21:07:22.388Z,18.91
2022-09-28T21:09:51.025Z,18.90
2022-09-28T21:12:23.634Z,18.87
2022-09-28T21:14:53.391Z,18.83
2022-09-28T21:17:22.968Z,18.80
2022-09-28T21:19:51.970Z,18.78
2022-09-28T21:22:22.274Z,18.77
2022-09-28T21:24:49.128Z,18.76
2022-09-28T21:27:18.837Z,18.73
2022-09-28T21:29:51.536Z,18.74
2022-09-28T21:32:19.513Z,18.68
2022-09-28T21:34:49.311Z,18.67
2022-09-28T21:37:18.174Z,18.64
2022-09-28T21:39:47.933Z,18.63
2022-09-28T21:42:17.634Z,18.61
2022-09-28T21:44:45.803Z,18.59
2022-09-28T21:47:13.981Z,18.56
2022-09-28T21:49:40.967Z,18.55
2022-09-28T21:52:08.642Z,18.54
2022-09-28T21:54:37.814Z,18.52
2022-09-28T21:57:06.882Z,18.50
2022-09-28T21:59:34.605Z,18.50
2022-09-28T22:02:02.078Z,18.50
2022-09-28T22:04:29.498Z,18.51
2022-09-28T22:06:56.835Z,18.52
2022-09-28T22:09:23.967Z,18.51
2022-09-28T22:11:51.247Z,18.53
2022-09-28T22:14:18.554Z,18.49
2022-09-28T22:16:45.621Z,18.50
2022-09-28T22:19:12.643Z,18.51
2022-09-28T22:21:39.839Z,18.53
2022-09-28T22:24:07.703Z,18.54
2022-09-28T22:26:37.003Z,18.53
2022-09-28T22:29:07.698Z,18.54
2022-09-28T22:31:38.735Z,18.54
2022-09-28T22:34:07.572Z,18.53
2022-09-28T22:36:35.069Z,18.53
2022-09-28T22:39:02.230Z,18.51
2022-09-28T22:41:30.057Z,18.48
2022-09-28T22:43:57.505Z,18.47
2022-09-28T22:46:27.387Z,18.44
2022-09-28T22:48:57.722Z,18.37
2022-09-28T22:51:27.767Z,18.35
2022-09-28T22:53:56.541Z,18.32
2022-09-28T22:56:23.884Z,18.29
2022-09-28T22:58:50.799Z,18.27
2022-09-28T23:01:27.454Z,18.26
2022-09-28T23:03:56.521Z,18.22
2022-09-28T23:06:28.340Z,18.22
2022-09-28T23:08:55.277Z,18.22
2022-09-28T23:11:22.441Z,18.20
2022-09-28T23:13:55.495Z,18.18
2022-09-28T23:16:25.526Z,18.14
2022-09-28T23:18:54.737Z,18.11
2022-09-28T23:21:25.444Z,18.11
2022-09-28T23:24:01.498Z,18.09
2022-09-28T23:26:32.072Z,18.08
2022-09-28T23:28:59.745Z,18.06
2022-09-28T23:31:30.463Z,18.01
2022-09-28T23:34:00.257Z,17.93
2022-09-28T23:36:28.047Z,17.81
2022-09-28T23:38:55.263Z,17.78
2022-09-28T23:41:22.289Z,17.72
2022-09-28T23:43:49.275Z,17.70
2022-09-28T23:46:20.432Z,17.67
2022-09-28T23:48:49.210Z,17.61
2022-09-28T23:51:17.044Z,17.57
2022-09-28T23:53:44.468Z,17.57
2022-09-28T23:56:12.077Z,17.57
2022-09-28T23:58:39.062Z,17.56
